sensor_id;sensor_type;location;lat;lon;timestamp;P1;durP1;ratioP1;P2;durP2;ratioP2
43519;SDS011;46848;51.980;5.918;2024-03-23T00:55:11;14.82;;;5.45;;
43519;SDS011;46848;51.980;5.918;2024-03-23T00:57:36;10.75;;;4.75;;
43519;SDS011;46848;51.980;5.918;2024-03-23T01:00:02;15.73;;;4.45;;
43519;SDS011;46848;51.980;5.918;2024-03-23T01:02:30;13.40;;;4.53;;
43519;SDS011;46848;51.980;5.918;2024-03-23T01:04:59;15.38;;;4.85;;
43519;SDS011;46848;51.980;5.918;2024-03-23T01:07:25;16.60;;;5.10;;
43519;SDS011;46848;51.980;5.918;2024-03-23T01:09:50;16.67;;;5.53;;
43519;SDS011;46848;51.980;5.918;2024-03-23T01:12:17;18.27;;;5.38;;
43519;SDS011;46848;51.980;5.918;2024-03-23T01:14:42;12.68;;;4.85;;
43519;SDS011;46848;51.980;5.918;2024-03-23T01:17:08;13.65;;;5.55;;
43519;SDS011;46848;51.980;5.918;2024-03-23T01:19:33;13.25;;;4.47;;
43519;SDS011;46848;51.980;5.918;2024-03-23T01:21:59;12.07;;;4.07;;
43519;SDS011;46848;51.980;5.918;2024-03-23T01:24:25;15.68;;;5.13;;
43519;SDS011;46848;51.980;5.918;2024-03-23T01:26:51;10.60;;;4.78;;
43519;SDS011;46848;51.980;5.918;2024-03-23T01:29:16;12.85;;;4.95;;
43519;SDS011;46848;51.980;5.918;2024-03-23T01:31:42;10.35;;;4.60;;
43519;SDS011;46848;51.980;5.918;2024-03-23T01:34:07;17.67;;;5.75;;
43519;SDS011;46848;51.980;5.918;2024-03-23T01:36:33;12.55;;;5.15;;
43519;SDS011;46848;51.980;5.918;2024-03-23T01:38:58;12.10;;;5.13;;
43519;SDS011;46848;51.980;5.918;2024-03-23T01:41:24;14.23;;;5.55;;
43519;SDS011;46848;51.980;5.918;2024-03-23T01:43:50;12.77;;;5.53;;
43519;SDS011;46848;51.980;5.918;2024-03-23T01:46:15;17.50;;;6.03;;
43519;SDS011;46848;51.980;5.918;2024-03-23T01:48:42;15.32;;;6.05;;
43519;SDS011;46848;51.980;5.918;2024-03-23T01:51:07;13.27;;;5.00;;
43519;SDS011;46848;51.980;5.918;2024-03-23T01:53:34;16.23;;;5.38;;
43519;SDS011;46848;51.980;5.918;2024-03-23T01:55:59;11.98;;;4.88;;
43519;SDS011;46848;51.980;5.918;2024-03-23T01:58:25;13.15;;;5.38;;
43519;SDS011;46848;51.980;5.918;2024-03-23T02:00:50;12.25;;;5.38;;
43519;SDS011;46848;51.980;5.918;2024-03-23T02:03:22;14.05;;;5.22;;
43519;SDS011;46848;51.980;5.918;2024-03-23T02:05:50;15.75;;;5.30;;
43519;SDS011;46848;51.980;5.918;2024-03-23T02:08:17;12.25;;;5.00;;
43519;SDS011;46848;51.980;5.918;2024-03-23T02:10:43;13.25;;;6.30;;
43519;SDS011;46848;51.980;5.918;2024-03-23T02:13:09;14.13;;;6.05;;
43519;SDS011;46848;51.980;5.918;2024-03-23T02:15:34;15.93;;;5.82;;
43519;SDS011;46848;51.980;5.918;2024-03-23T02:18:00;11.98;;;5.82;;
43519;SDS011;46848;51.980;5.918;2024-03-23T02:20:25;18.98;;;6.00;;
43519;SDS011;46848;51.980;5.918;2024-03-23T02:22:52;14.98;;;5.75;;
43519;SDS011;46848;51.980;5.918;2024-03-23T02:25:18;13.70;;;5.82;;
43519;SDS011;46848;51.980;5.918;2024-03-23T02:27:44;12.93;;;6.43;;
43519;SDS011;46848;51.980;5.918;2024-03-23T02:30:09;14.32;;;6.18;;
43519;SDS011;46848;51.980;5.918;2024-03-23T02:32:35;12.90;;;5.53;;
43519;SDS011;46848;51.980;5.918;2024-03-23T02:35:01;16.20;;;5.88;;
43519;SDS011;46848;51.980;5.918;2024-03-23T02:37:26;14.55;;;6.55;;
43519;SDS011;46848;51.980;5.918;2024-03-23T02:39:52;13.90;;;5.68;;
43519;SDS011;46848;51.980;5.918;2024-03-23T02:42:18;16.42;;;6.20;;
43519;SDS011;46848;51.980;5.918;2024-03-23T02:44:44;13.05;;;6.28;;
43519;SDS011;46848;51.980;5.918;2024-03-23T02:47:10;13.55;;;6.32;;
43519;SDS011;46848;51.980;5.918;2024-03-23T02:49:35;15.85;;;6.78;;
43519;SDS011;46848;51.980;5.918;2024-03-23T02:52:01;15.20;;;6.75;;
43519;SDS011;46848;51.980;5.918;2024-03-23T02:54:26;16.35;;;7.20;;
43519;SDS011;46848;51.980;5.918;2024-03-23T02:56:52;16.70;;;6.63;;
43519;SDS011;46848;51.980;5.918;2024-03-23T02:59:17;15.48;;;6.93;;
43519;SDS011;46848;51.980;5.918;2024-03-23T03:01:43;14.95;;;6.47;;
43519;SDS011;46848;51.980;5.918;2024-03-23T03:04:08;17.10;;;7.13;;
43519;SDS011;46848;51.980;5.918;2024-03-23T03:06:34;14.18;;;6.93;;
43519;SDS011;46848;51.980;5.918;2024-03-23T03:09:00;15.75;;;6.80;;
43519;SDS011;46848;51.980;5.918;2024-03-23T03:11:25;18.10;;;7.18;;
43519;SDS011;46848;51.980;5.918;2024-03-23T03:13:51;19.13;;;7.97;;
43519;SDS011;46848;51.980;5.918;2024-03-23T03:16:17;15.40;;;6.90;;
43519;SDS011;46848;51.980;5.918;2024-03-23T03:18:42;16.80;;;8.00;;
43519;SDS011;46848;51.980;5.918;2024-03-23T03:21:08;17.63;;;7.22;;
43519;SDS011;46848;51.980;5.918;2024-03-23T03:23:38;16.95;;;7.93;;
43519;SDS011;46848;51.980;5.918;2024-03-23T03:26:05;17.55;;;7.32;;
43519;SDS011;46848;51.980;5.918;2024-03-23T03:28:31;18.63;;;7.75;;
43519;SDS011;46848;51.980;5.918;2024-03-23T03:30:58;13.32;;;7.47;;
43519;SDS011;46848;51.980;5.918;2024-03-23T03:33:24;20.73;;;8.00;;
43519;SDS011;46848;51.980;5.918;2024-03-23T03:35:49;13.05;;;6.65;;
43519;SDS011;46848;51.980;5.918;2024-03-23T03:38:16;20.35;;;7.80;;
43519;SDS011;46848;51.980;5.918;2024-03-23T03:40:43;15.88;;;7.35;;
43519;SDS011;46848;51.980;5.918;2024-03-23T03:43:08;14.13;;;7.38;;
43519;SDS011;46848;51.980;5.918;2024-03-23T03:45:34;14.73;;;7.55;;
43519;SDS011;46848;51.980;5.918;2024-03-23T03:47:59;14.57;;;6.78;;
43519;SDS011;46848;51.980;5.918;2024-03-23T03:50:25;16.40;;;7.88;;
43519;SDS011;46848;51.980;5.918;2024-03-23T03:52:51;13.77;;;7.30;;
43519;SDS011;46848;51.980;5.918;2024-03-23T03:55:16;15.05;;;6.72;;
43519;SDS011;46848;51.980;5.918;2024-03-23T03:57:42;14.30;;;6.85;;
43519;SDS011;46848;51.980;5.918;2024-03-23T04:00:07;13.18;;;7.00;;
43519;SDS011;46848;51.980;5.918;2024-03-23T04:02:39;15.82;;;7.70;;
43519;SDS011;46848;51.980;5.918;2024-03-23T04:05:05;17.77;;;7.23;;
43519;SDS011;46848;51.980;5.918;2024-03-23T04:07:31;17.75;;;7.05;;
43519;SDS011;46848;51.980;5.918;2024-03-23T04:09:57;16.05;;;7.40;;
43519;SDS011;46848;51.980;5.918;2024-03-23T04:12:23;13.35;;;6.95;;
43519;SDS011;46848;51.980;5.918;2024-03-23T04:14:49;15.85;;;7.20;;
43519;SDS011;46848;51.980;5.918;2024-03-23T04:17:14;14.27;;;6.72;;
43519;SDS011;46848;51.980;5.918;2024-03-23T04:19:41;16.13;;;6.82;;
43519;SDS011;46848;51.980;5.918;2024-03-23T04:22:07;13.80;;;6.95;;
43519;SDS011;46848;51.980;5.918;2024-03-23T04:24:33;16.42;;;7.13;;
43519;SDS011;46848;51.980;5.918;2024-03-23T04:26:58;16.30;;;7.03;;
43519;SDS011;46848;51.980;5.918;2024-03-23T04:29:24;14.37;;;6.77;;
43519;SDS011;46848;51.980;5.918;2024-03-23T04:31:51;16.90;;;7.45;;
43519;SDS011;46848;51.980;5.918;2024-03-23T04:34:17;15.60;;;7.25;;
43519;SDS011;46848;51.980;5.918;2024-03-23T04:36:42;20.67;;;7.38;;
43519;SDS011;46848;51.980;5.918;2024-03-23T04:39:08;19.15;;;7.80;;
43519;SDS011;46848;51.980;5.918;2024-03-23T04:41:34;14.20;;;6.63;;
43519;SDS011;46848;51.980;5.918;2024-03-23T04:44:00;17.15;;;6.15;;
43519;SDS011;46848;51.980;5.918;2024-03-23T04:46:26;12.93;;;6.15;;
43519;SDS011;46848;51.980;5.918;2024-03-23T04:48:51;15.10;;;6.40;;
43519;SDS011;46848;51.980;5.918;2024-03-23T04:51:22;18.27;;;6.00;;
43519;SDS011;46848;51.980;5.918;2024-03-23T04:53:48;13.50;;;5.45;;
43519;SDS011;46848;51.980;5.918;2024-03-23T04:56:15;9.55;;;5.25;;
43519;SDS011;46848;51.980;5.918;2024-03-23T04:58:41;17.37;;;5.67;;
43519;SDS011;46848;51.980;5.918;2024-03-23T05:01:09;10.65;;;4.70;;
43519;SDS011;46848;51.980;5.918;2024-03-23T05:03:35;11.88;;;5.03;;
43519;SDS011;46848;51.980;5.918;2024-03-23T05:06:01;12.38;;;4.78;;
43519;SDS011;46848;51.980;5.918;2024-03-23T05:08:26;14.03;;;5.93;;
43519;SDS011;46848;51.980;5.918;2024-03-23T05:10:52;10.32;;;4.38;;
43519;SDS011;46848;51.980;5.918;2024-03-23T05:13:17;13.40;;;4.87;;
43519;SDS011;46848;51.980;5.918;2024-03-23T05:15:43;12.63;;;4.28;;
43519;SDS011;46848;51.980;5.918;2024-03-23T05:18:09;13.55;;;5.00;;
43519;SDS011;46848;51.980;5.918;2024-03-23T05:20:35;12.20;;;4.05;;
43519;SDS011;46848;51.980;5.918;2024-03-23T05:23:00;12.13;;;3.88;;
43519;SDS011;46848;51.980;5.918;2024-03-23T05:25:26;8.07;;;3.28;;
43519;SDS011;46848;51.980;5.918;2024-03-23T05:27:51;7.63;;;3.03;;
43519;SDS011;46848;51.980;5.918;2024-03-23T05:30:17;13.50;;;3.53;;
43519;SDS011;46848;51.980;5.918;2024-03-23T05:32:43;13.87;;;4.03;;
43519;SDS011;46848;51.980;5.918;2024-03-23T05:35:09;9.00;;;3.30;;
43519;SDS011;46848;51.980;5.918;2024-03-23T05:37:35;10.50;;;3.27;;
43519;SDS011;46848;51.980;5.918;2024-03-23T05:40:02;9.87;;;3.50;;
43519;SDS011;46848;51.980;5.918;2024-03-23T05:42:28;9.40;;;3.22;;
43519;SDS011;46848;51.980;5.918;2024-03-23T05:44:54;9.33;;;3.67;;
43519;SDS011;46848;51.980;5.918;2024-03-23T05:47:19;10.37;;;3.47;;
43519;SDS011;46848;51.980;5.918;2024-03-23T05:49:45;10.50;;;3.10;;
43519;SDS011;46848;51.980;5.918;2024-03-23T05:52:11;9.40;;;3.23;;
43519;SDS011;46848;51.980;5.918;2024-03-23T05:54:37;7.97;;;2.63;;
43519;SDS011;46848;51.980;5.918;2024-03-23T05:57:03;9.77;;;3.07;;
43519;SDS011;46848;51.980;5.918;2024-03-23T05:59:28;9.45;;;3.05;;
43519;SDS011;46848;51.980;5.918;2024-03-23T06:01:54;9.97;;;3.23;;
43519;SDS011;46848;51.980;5.918;2024-03-23T06:04:20;10.13;;;3.10;;
43519;SDS011;46848;51.980;5.918;2024-03-23T06:06:47;10.70;;;3.20;;
43519;SDS011;46848;51.980;5.918;2024-03-23T06:09:13;12.07;;;3.40;;
43519;SDS011;46848;51.980;5.918;2024-03-23T06:11:38;9.37;;;2.23;;
43519;SDS011;46848;51.980;5.918;2024-03-23T06:14:04;11.30;;;2.90;;
43519;SDS011;46848;51.980;5.918;2024-03-23T06:16:30;9.18;;;3.05;;
43519;SDS011;46848;51.980;5.918;2024-03-23T06:18:56;9.97;;;3.07;;
43519;SDS011;46848;51.980;5.918;2024-03-23T06:21:22;9.65;;;2.70;;
43519;SDS011;46848;51.980;5.918;2024-03-23T06:23:50;9.50;;;2.67;;
43519;SDS011;46848;51.980;5.918;2024-03-23T06:26:20;12.90;;;2.90;;
43519;SDS011;46848;51.980;5.918;2024-03-23T06:28:46;9.53;;;3.20;;
43519;SDS011;46848;51.980;5.918;2024-03-23T06:31:12;11.55;;;3.00;;
43519;SDS011;46848;51.980;5.918;2024-03-23T06:33:37;8.33;;;2.37;;
43519;SDS011;46848;51.980;5.918;2024-03-23T06:36:04;7.90;;;2.10;;
43519;SDS011;46848;51.980;5.918;2024-03-23T06:38:30;10.03;;;2.53;;
43519;SDS011;46848;51.980;5.918;2024-03-23T06:40:56;8.67;;;2.37;;
43519;SDS011;46848;51.980;5.918;2024-03-23T06:43:21;9.82;;;3.13;;
43519;SDS011;46848;51.980;5.918;2024-03-23T06:45:53;8.77;;;2.38;;
43519;SDS011;46848;51.980;5.918;2024-03-23T06:48:19;8.65;;;2.63;;
43519;SDS011;46848;51.980;5.918;2024-03-23T06:50:45;8.57;;;2.38;;
43519;SDS011;46848;51.980;5.918;2024-03-23T06:53:11;9.93;;;2.42;;
43519;SDS011;46848;51.980;5.918;2024-03-23T06:55:38;9.70;;;2.35;;
43519;SDS011;46848;51.980;5.918;2024-03-23T06:58:03;6.95;;;1.70;;
43519;SDS011;46848;51.980;5.918;2024-03-23T07:00:29;7.20;;;2.28;;
43519;SDS011;46848;51.980;5.918;2024-03-23T07:02:55;6.25;;;1.70;;
43519;SDS011;46848;51.980;5.918;2024-03-23T07:05:20;4.75;;;1.52;;
43519;SDS011;46848;51.980;5.918;2024-03-23T07:07:46;10.70;;;2.35;;
43519;SDS011;46848;51.980;5.918;2024-03-23T07:10:12;13.32;;;2.30;;
43519;SDS011;46848;51.980;5.918;2024-03-23T07:12:38;9.15;;;1.92;;
43519;SDS011;46848;51.980;5.918;2024-03-23T07:15:03;7.18;;;1.88;;
43519;SDS011;46848;51.980;5.918;2024-03-23T07:17:29;8.82;;;1.60;;
43519;SDS011;46848;51.980;5.918;2024-03-23T07:19:55;6.18;;;1.65;;
43519;SDS011;46848;51.980;5.918;2024-03-23T07:22:21;11.55;;;2.35;;
43519;SDS011;46848;51.980;5.918;2024-03-23T07:24:46;8.38;;;2.35;;
43519;SDS011;46848;51.980;5.918;2024-03-23T07:27:12;9.57;;;2.20;;
43519;SDS011;46848;51.980;5.918;2024-03-23T07:29:37;10.52;;;2.38;;
43519;SDS011;46848;51.980;5.918;2024-03-23T07:32:03;6.28;;;1.95;;
43519;SDS011;46848;51.980;5.918;2024-03-23T07:34:29;8.20;;;2.20;;
43519;SDS011;46848;51.980;5.918;2024-03-23T07:36:54;8.57;;;2.33;;
43519;SDS011;46848;51.980;5.918;2024-03-23T07:39:20;5.70;;;1.90;;
43519;SDS011;46848;51.980;5.918;2024-03-23T07:41:45;8.27;;;1.85;;
43519;SDS011;46848;51.980;5.918;2024-03-23T07:44:11;10.23;;;2.20;;
43519;SDS011;46848;51.980;5.918;2024-03-23T07:46:37;9.60;;;2.40;;
43519;SDS011;46848;51.980;5.918;2024-03-23T07:49:06;10.23;;;2.58;;
43519;SDS011;46848;51.980;5.918;2024-03-23T07:51:32;8.60;;;2.55;;
43519;SDS011;46848;51.980;5.918;2024-03-23T07:53:59;9.32;;;2.78;;
43519;SDS011;46848;51.980;5.918;2024-03-23T07:56:25;10.52;;;2.30;;
43519;SDS011;46848;51.980;5.918;2024-03-23T07:58:51;10.10;;;3.92;;
43519;SDS011;46848;51.980;5.918;2024-03-23T08:01:16;18.75;;;9.68;;
43519;SDS011;46848;51.980;5.918;2024-03-23T08:03:43;12.05;;;5.55;;
43519;SDS011;46848;51.980;5.918;2024-03-23T08:06:10;11.48;;;3.72;;
43519;SDS011;46848;51.980;5.918;2024-03-23T08:08:40;11.45;;;3.47;;
43519;SDS011;46848;51.980;5.918;2024-03-23T08:11:07;7.35;;;2.67;;
43519;SDS011;46848;51.980;5.918;2024-03-23T08:13:33;10.75;;;2.47;;
43519;SDS011;46848;51.980;5.918;2024-03-23T08:16:00;9.95;;;2.90;;
43519;SDS011;46848;51.980;5.918;2024-03-23T08:18:27;8.75;;;2.47;;
43519;SDS011;46848;51.980;5.918;2024-03-23T08:20:56;11.60;;;2.72;;
43519;SDS011;46848;51.980;5.918;2024-03-23T08:23:26;8.25;;;2.40;;
43519;SDS011;46848;51.980;5.918;2024-03-23T08:26:03;10.25;;;2.38;;
43519;SDS011;46848;51.980;5.918;2024-03-23T08:28:30;7.65;;;2.00;;
43519;SDS011;46848;51.980;5.918;2024-03-23T08:30:55;8.57;;;1.77;;
43519;SDS011;46848;51.980;5.918;2024-03-23T08:33:21;10.98;;;2.60;;
43519;SDS011;46848;51.980;5.918;2024-03-23T08:35:56;9.07;;;2.20;;
43519;SDS011;46848;51.980;5.918;2024-03-23T08:38:23;11.40;;;2.25;;
43519;SDS011;46848;51.980;5.918;2024-03-23T08:43:25;7.13;;;1.98;;
43519;SDS011;46848;51.980;5.918;2024-03-23T08:45:51;8.45;;;1.90;;
43519;SDS011;46848;51.980;5.918;2024-03-23T08:48:17;8.82;;;2.03;;
43519;SDS011;46848;51.980;5.918;2024-03-23T08:50:45;9.27;;;2.10;;
43519;SDS011;46848;51.980;5.918;2024-03-23T08:53:11;7.65;;;1.80;;
43519;SDS011;46848;51.980;5.918;2024-03-23T08:55:36;8.57;;;2.08;;
43519;SDS011;46848;51.980;5.918;2024-03-23T08:58:02;9.73;;;2.38;;
43519;SDS011;46848;51.980;5.918;2024-03-23T09:00:29;8.60;;;2.13;;
43519;SDS011;46848;51.980;5.918;2024-03-23T09:02:55;7.30;;;1.88;;
43519;SDS011;46848;51.980;5.918;2024-03-23T09:05:21;6.60;;;1.95;;
43519;SDS011;46848;51.980;5.918;2024-03-23T09:07:49;5.88;;;1.55;;
43519;SDS011;46848;51.980;5.918;2024-03-23T09:10:14;5.53;;;1.40;;
43519;SDS011;46848;51.980;5.918;2024-03-23T09:12:40;8.25;;;1.70;;
43519;SDS011;46848;51.980;5.918;2024-03-23T09:15:05;7.70;;;1.40;;
43519;SDS011;46848;51.980;5.918;2024-03-23T09:17:31;8.70;;;1.45;;
43519;SDS011;46848;51.980;5.918;2024-03-23T09:19:57;8.00;;;1.42;;
43519;SDS011;46848;51.980;5.918;2024-03-23T09:22:23;6.72;;;1.25;;
43519;SDS011;46848;51.980;5.918;2024-03-23T09:24:48;6.03;;;1.20;;
43519;SDS011;46848;51.980;5.918;2024-03-23T09:27:13;8.85;;;1.98;;
43519;SDS011;46848;51.980;5.918;2024-03-23T09:29:39;7.95;;;2.08;;
43519;SDS011;46848;51.980;5.918;2024-03-23T09:32:05;7.07;;;1.65;;
43519;SDS011;46848;51.980;5.918;2024-03-23T09:34:30;8.13;;;1.88;;
43519;SDS011;46848;51.980;5.918;2024-03-23T09:36:56;9.80;;;2.22;;
43519;SDS011;46848;51.980;5.918;2024-03-23T09:39:21;7.63;;;1.83;;
43519;SDS011;46848;51.980;5.918;2024-03-23T09:41:47;9.85;;;1.95;;
43519;SDS011;46848;51.980;5.918;2024-03-23T09:44:12;8.00;;;1.88;;
43519;SDS011;46848;51.980;5.918;2024-03-23T09:46:38;6.47;;;1.63;;
43519;SDS011;46848;51.980;5.918;2024-03-23T09:49:05;8.82;;;1.55;;
43519;SDS011;46848;51.980;5.918;2024-03-23T09:51:35;6.03;;;1.52;;
43519;SDS011;46848;51.980;5.918;2024-03-23T09:54:01;8.43;;;2.22;;
43519;SDS011;46848;51.980;5.918;2024-03-23T09:56:26;7.50;;;1.65;;
43519;SDS011;46848;51.980;5.918;2024-03-23T09:58:59;6.53;;;1.75;;
43519;SDS011;46848;51.980;5.918;2024-03-23T10:01:26;7.10;;;1.67;;
43519;SDS011;46848;51.980;5.918;2024-03-23T10:03:51;9.27;;;2.00;;
43519;SDS011;46848;51.980;5.918;2024-03-23T10:06:17;6.55;;;1.90;;
43519;SDS011;46848;51.980;5.918;2024-03-23T10:08:47;5.60;;;1.48;;
43519;SDS011;46848;51.980;5.918;2024-03-23T10:11:15;6.50;;;1.75;;
43519;SDS011;46848;51.980;5.918;2024-03-23T10:13:42;6.60;;;1.70;;
43519;SDS011;46848;51.980;5.918;2024-03-23T10:16:09;5.53;;;1.55;;
43519;SDS011;46848;51.980;5.918;2024-03-23T10:18:38;6.80;;;1.45;;
43519;SDS011;46848;51.980;5.918;2024-03-23T10:21:10;5.88;;;1.83;;
43519;SDS011;46848;51.980;5.918;2024-03-23T10:23:37;7.22;;;1.58;;
43519;SDS011;46848;51.980;5.918;2024-03-23T10:26:20;6.13;;;1.65;;
43519;SDS011;46848;51.980;5.918;2024-03-23T10:28:53;5.07;;;1.38;;
43519;SDS011;46848;51.980;5.918;2024-03-23T10:31:19;6.38;;;1.83;;
43519;SDS011;46848;51.980;5.918;2024-03-23T10:33:46;5.72;;;2.05;;
43519;SDS011;46848;51.980;5.918;2024-03-23T10:36:12;7.90;;;1.55;;
43519;SDS011;46848;51.980;5.918;2024-03-23T10:38:39;4.32;;;1.30;;
43519;SDS011;46848;51.980;5.918;2024-03-23T10:41:07;3.58;;;1.10;;
43519;SDS011;46848;51.980;5.918;2024-03-23T10:43:34;3.65;;;1.00;;
43519;SDS011;46848;51.980;5.918;2024-03-23T10:46:01;7.72;;;1.27;;
43519;SDS011;46848;51.980;5.918;2024-03-23T10:48:27;4.43;;;1.38;;
43519;SDS011;46848;51.980;5.918;2024-03-23T10:50:53;6.75;;;1.48;;
43519;SDS011;46848;51.980;5.918;2024-03-23T10:53:19;8.13;;;1.38;;
43519;SDS011;46848;51.980;5.918;2024-03-23T10:55:47;7.15;;;1.67;;
43519;SDS011;46848;51.980;5.918;2024-03-23T10:58:13;6.18;;;1.38;;
43519;SDS011;46848;51.980;5.918;2024-03-23T11:00:39;4.40;;;1.25;;
43519;SDS011;46848;51.980;5.918;2024-03-23T11:06:10;6.15;;;1.40;;
43519;SDS011;46848;51.980;5.918;2024-03-23T11:08:36;6.10;;;1.52;;
43519;SDS011;46848;51.980;5.918;2024-03-23T11:11:19;5.30;;;1.00;;
43519;SDS011;46848;51.980;5.918;2024-03-23T11:13:49;5.68;;;1.40;;
43519;SDS011;46848;51.980;5.918;2024-03-23T11:16:16;7.03;;;1.88;;
43519;SDS011;46848;51.980;5.918;2024-03-23T11:18:46;6.25;;;1.30;;
43519;SDS011;46848;51.980;5.918;2024-03-23T11:21:51;4.25;;;1.10;;
43519;SDS011;46848;51.980;5.918;2024-03-23T11:24:16;5.72;;;1.20;;
43519;SDS011;46848;51.980;5.918;2024-03-23T11:26:43;4.30;;;1.10;;
43519;SDS011;46848;51.980;5.918;2024-03-23T11:29:09;6.45;;;1.42;;
43519;SDS011;46848;51.980;5.918;2024-03-23T11:31:38;5.38;;;1.40;;
43519;SDS011;46848;51.980;5.918;2024-03-23T11:34:04;7.25;;;1.52;;
43519;SDS011;46848;51.980;5.918;2024-03-23T11:36:30;6.15;;;1.70;;
43519;SDS011;46848;51.980;5.918;2024-03-23T11:38:55;6.47;;;1.35;;
43519;SDS011;46848;51.980;5.918;2024-03-23T11:41:21;8.30;;;1.55;;
43519;SDS011;46848;51.980;5.918;2024-03-23T11:43:47;5.78;;;1.27;;
43519;SDS011;46848;51.980;5.918;2024-03-23T11:46:21;5.45;;;1.33;;
43519;SDS011;46848;51.980;5.918;2024-03-23T11:48:50;4.00;;;1.23;;
43519;SDS011;46848;51.980;5.918;2024-03-23T11:51:16;5.50;;;1.48;;
43519;SDS011;46848;51.980;5.918;2024-03-23T11:53:42;5.60;;;1.05;;
43519;SDS011;46848;51.980;5.918;2024-03-23T11:56:08;5.70;;;1.23;;
43519;SDS011;46848;51.980;5.918;2024-03-23T11:58:34;4.50;;;1.00;;
43519;SDS011;46848;51.980;5.918;2024-03-23T12:01:01;6.47;;;1.50;;
43519;SDS011;46848;51.980;5.918;2024-03-23T12:03:28;6.72;;;1.45;;
43519;SDS011;46848;51.980;5.918;2024-03-23T12:05:58;7.75;;;1.40;;
43519;SDS011;46848;51.980;5.918;2024-03-23T12:08:30;5.28;;;1.17;;
43519;SDS011;46848;51.980;5.918;2024-03-23T12:11:07;4.22;;;1.20;;
43519;SDS011;46848;51.980;5.918;2024-03-23T12:13:34;5.38;;;1.60;;
43519;SDS011;46848;51.980;5.918;2024-03-23T12:16:09;5.32;;;1.40;;
43519;SDS011;46848;51.980;5.918;2024-03-23T12:18:39;5.40;;;1.17;;
43519;SDS011;46848;51.980;5.918;2024-03-23T12:21:08;5.63;;;1.50;;
43519;SDS011;46848;51.980;5.918;2024-03-23T12:23:34;3.92;;;1.15;;
43519;SDS011;46848;51.980;5.918;2024-03-23T12:26:00;4.72;;;1.50;;
43519;SDS011;46848;51.980;5.918;2024-03-23T12:28:26;4.30;;;0.93;;
43519;SDS011;46848;51.980;5.918;2024-03-23T12:30:52;4.25;;;1.15;;
43519;SDS011;46848;51.980;5.918;2024-03-23T12:33:19;4.07;;;1.08;;
43519;SDS011;46848;51.980;5.918;2024-03-23T12:35:45;4.93;;;1.15;;
43519;SDS011;46848;51.980;5.918;2024-03-23T12:38:10;6.07;;;1.52;;
43519;SDS011;46848;51.980;5.918;2024-03-23T12:40:36;6.70;;;1.20;;
43519;SDS011;46848;51.980;5.918;2024-03-23T12:43:02;5.43;;;1.70;;
43519;SDS011;46848;51.980;5.918;2024-03-23T12:45:27;6.28;;;1.52;;
43519;SDS011;46848;51.980;5.918;2024-03-23T12:47:53;6.47;;;1.52;;
43519;SDS011;46848;51.980;5.918;2024-03-23T12:50:18;4.85;;;1.30;;
43519;SDS011;46848;51.980;5.918;2024-03-23T12:52:45;6.78;;;1.08;;
43519;SDS011;46848;51.980;5.918;2024-03-23T12:55:10;4.53;;;1.17;;
43519;SDS011;46848;51.980;5.918;2024-03-23T12:57:36;5.88;;;1.58;;
43519;SDS011;46848;51.980;5.918;2024-03-23T13:00:01;6.50;;;1.50;;
43519;SDS011;46848;51.980;5.918;2024-03-23T13:02:29;4.47;;;1.38;;
43519;SDS011;46848;51.980;5.918;2024-03-23T13:04:54;5.25;;;1.20;;
43519;SDS011;46848;51.980;5.918;2024-03-23T13:07:21;3.78;;;0.88;;
43519;SDS011;46848;51.980;5.918;2024-03-23T13:09:51;8.32;;;1.35;;
43519;SDS011;46848;51.980;5.918;2024-03-23T13:12:17;4.63;;;1.50;;
43519;SDS011;46848;51.980;5.918;2024-03-23T13:14:44;4.93;;;1.38;;
43519;SDS011;46848;51.980;5.918;2024-03-23T13:17:10;7.13;;;1.27;;
43519;SDS011;46848;51.980;5.918;2024-03-23T13:19:36;7.28;;;1.42;;
43519;SDS011;46848;51.980;5.918;2024-03-23T13:22:02;4.75;;;0.93;;
43519;SDS011;46848;51.980;5.918;2024-03-23T13:24:28;6.15;;;1.30;;
43519;SDS011;46848;51.980;5.918;2024-03-23T13:26:54;6.55;;;1.65;;
43519;SDS011;46848;51.980;5.918;2024-03-23T13:29:21;4.93;;;1.40;;
43519;SDS011;46848;51.980;5.918;2024-03-23T13:31:47;5.38;;;1.38;;
43519;SDS011;46848;51.980;5.918;2024-03-23T13:34:14;7.55;;;1.40;;
43519;SDS011;46848;51.980;5.918;2024-03-23T13:36:49;7.63;;;1.50;;
43519;SDS011;46848;51.980;5.918;2024-03-23T13:39:16;6.55;;;1.83;;
43519;SDS011;46848;51.980;5.918;2024-03-23T13:41:43;6.30;;;1.70;;
43519;SDS011;46848;51.980;5.918;2024-03-23T13:44:10;5.40;;;1.17;;
43519;SDS011;46848;51.980;5.918;2024-03-23T13:46:37;8.77;;;1.63;;
43519;SDS011;46848;51.980;5.918;2024-03-23T13:49:04;4.80;;;1.30;;
43519;SDS011;46848;51.980;5.918;2024-03-23T13:51:31;6.25;;;1.40;;
43519;SDS011;46848;51.980;5.918;2024-03-23T13:53:57;6.93;;;1.55;;
43519;SDS011;46848;51.980;5.918;2024-03-23T13:56:25;4.55;;;0.98;;
43519;SDS011;46848;51.980;5.918;2024-03-23T13:58:55;6.10;;;1.27;;
43519;SDS011;46848;51.980;5.918;2024-03-23T14:01:21;8.00;;;1.48;;
43519;SDS011;46848;51.980;5.918;2024-03-23T14:03:47;6.35;;;1.52;;
43519;SDS011;46848;51.980;5.918;2024-03-23T14:06:12;6.22;;;1.90;;
43519;SDS011;46848;51.980;5.918;2024-03-23T14:08:38;7.13;;;1.30;;
43519;SDS011;46848;51.980;5.918;2024-03-23T14:11:05;4.22;;;1.33;;
43519;SDS011;46848;51.980;5.918;2024-03-23T14:13:30;5.75;;;1.55;;
43519;SDS011;46848;51.980;5.918;2024-03-23T14:15:56;7.45;;;1.30;;
43519;SDS011;46848;51.980;5.918;2024-03-23T14:18:22;8.68;;;2.20;;
43519;SDS011;46848;51.980;5.918;2024-03-23T14:20:49;6.35;;;1.60;;
43519;SDS011;46848;51.980;5.918;2024-03-23T14:23:15;4.43;;;1.08;;
43519;SDS011;46848;51.980;5.918;2024-03-23T14:25:41;7.03;;;1.27;;
43519;SDS011;46848;51.980;5.918;2024-03-23T14:28:07;4.75;;;1.10;;
43519;SDS011;46848;51.980;5.918;2024-03-23T14:30:38;5.95;;;1.33;;
43519;SDS011;46848;51.980;5.918;2024-03-23T14:33:04;6.10;;;1.40;;
43519;SDS011;46848;51.980;5.918;2024-03-23T14:35:30;4.75;;;1.35;;
43519;SDS011;46848;51.980;5.918;2024-03-23T14:37:57;4.43;;;1.13;;
43519;SDS011;46848;51.980;5.918;2024-03-23T14:40:23;4.43;;;0.93;;
43519;SDS011;46848;51.980;5.918;2024-03-23T14:42:52;3.67;;;1.20;;
43519;SDS011;46848;51.980;5.918;2024-03-23T14:45:19;5.07;;;1.10;;
43519;SDS011;46848;51.980;5.918;2024-03-23T14:47:45;4.82;;;1.10;;
43519;SDS011;46848;51.980;5.918;2024-03-23T14:50:10;3.22;;;1.17;;
43519;SDS011;46848;51.980;5.918;2024-03-23T14:52:40;5.45;;;1.02;;
43519;SDS011;46848;51.980;5.918;2024-03-23T14:55:06;2.15;;;0.75;;
43519;SDS011;46848;51.980;5.918;2024-03-23T14:57:33;5.57;;;1.25;;
43519;SDS011;46848;51.980;5.918;2024-03-23T14:59:59;4.95;;;1.00;;
43519;SDS011;46848;51.980;5.918;2024-03-23T15:02:25;5.35;;;1.10;;
43519;SDS011;46848;51.980;5.918;2024-03-23T15:04:52;4.78;;;1.00;;
43519;SDS011;46848;51.980;5.918;2024-03-23T15:07:19;2.90;;;0.80;;
43519;SDS011;46848;51.980;5.918;2024-03-23T15:09:45;3.58;;;1.10;;
43519;SDS011;46848;51.980;5.918;2024-03-23T15:12:10;4.50;;;1.00;;
43519;SDS011;46848;51.980;5.918;2024-03-23T15:14:36;5.30;;;1.17;;
43519;SDS011;46848;51.980;5.918;2024-03-23T15:17:02;5.18;;;1.55;;
43519;SDS011;46848;51.980;5.918;2024-03-23T15:19:32;3.90;;;1.05;;
43519;SDS011;46848;51.980;5.918;2024-03-23T15:21:58;4.40;;;1.10;;
43519;SDS011;46848;51.980;5.918;2024-03-23T15:24:24;3.15;;;1.13;;
43519;SDS011;46848;51.980;5.918;2024-03-23T15:26:50;8.77;;;2.03;;
43519;SDS011;46848;51.980;5.918;2024-03-23T15:29:17;5.32;;;1.88;;
43519;SDS011;46848;51.980;5.918;2024-03-23T15:31:42;6.68;;;2.22;;
43519;SDS011;46848;51.980;5.918;2024-03-23T15:34:08;5.43;;;1.63;;
43519;SDS011;46848;51.980;5.918;2024-03-23T15:36:37;4.00;;;1.48;;
43519;SDS011;46848;51.980;5.918;2024-03-23T15:39:04;7.53;;;1.33;;